createdAt,value
2019-05-09T00:00:57.058Z,100281.37
2019-05-09T00:03:24.128Z,100273.09
2019-05-09T00:05:51.315Z,100273.09
2019-05-09T00:08:18.305Z,100272.62
2019-05-09T00:10:45.217Z,100262.49
2019-05-09T00:13:13.731Z,100264.34
2019-05-09T00:15:40.814Z,100263.93
2019-05-09T00:18:07.882Z,100256.03
2019-05-09T00:20:36.720Z,100260.42
2019-05-09T00:23:04.357Z,100251.62
2019-05-09T00:25:31.015Z,100243.74
2019-05-09T00:27:58.477Z,100252.08
2019-05-09T00:30:43.732Z,100242.43
2019-05-09T00:33:11.419Z,100238.06
2019-05-09T00:35:38.266Z,100236.31
2019-05-09T00:38:06.460Z,100235.91
2019-05-09T00:40:35.084Z,100237.72
2019-05-09T00:43:03.742Z,100259.60
2019-05-09T00:45:38.332Z,100240.77
2019-05-09T00:48:05.028Z,100240.36
2019-05-09T00:50:34.004Z,100224.59
2019-05-09T00:53:03.027Z,100247.03
2019-05-09T00:55:29.355Z,100230.79
2019-05-09T00:57:56.335Z,100231.32
2019-05-09T01:00:24.347Z,100230.00
2019-05-09T01:02:51.247Z,100226.93
2019-05-09T01:05:18.013Z,100236.73
2019-05-09T01:07:44.883Z,100245.50
2019-05-09T01:10:13.413Z,100234.53
2019-05-09T01:12:40.493Z,100225.33
2019-05-09T01:15:08.131Z,100228.39
2019-05-09T01:17:34.855Z,100216.58
2019-05-09T01:20:03.453Z,100220.53
2019-05-09T01:22:30.299Z,100207.89
2019-05-09T01:24:57.378Z,100210.17
2019-05-09T01:27:24.414Z,100214.97
2019-05-09T01:29:53.429Z,100202.63
2019-05-09T01:32:24.492Z,100201.38
2019-05-09T01:34:52.999Z,100211.95
2019-05-09T01:37:20.065Z,100201.93
2019-05-09T01:39:46.779Z,100205.00
2019-05-09T01:42:14.012Z,100193.56
2019-05-09T01:44:40.901Z,100197.08
2019-05-09T01:47:07.766Z,100190.52
2019-05-09T01:49:34.895Z,100191.05
2019-05-09T01:52:03.297Z,100189.35
2019-05-09T01:54:33.090Z,100191.02
2019-05-09T01:56:59.526Z,100190.58
2019-05-09T01:59:26.474Z,100185.34
2019-05-09T02:01:54.208Z,100184.17
2019-05-09T02:04:21.289Z,100181.10
2019-05-09T02:06:48.260Z,100174.53
2019-05-09T02:09:15.377Z,100171.89
2019-05-09T02:11:44.971Z,100167.13
2019-05-09T02:14:13.492Z,100170.20
2019-05-09T02:16:46.317Z,100173.30
2019-05-09T02:19:23.974Z,100167.19
2019-05-09T02:21:50.289Z,100161.05
2019-05-09T02:24:18.252Z,100155.79
2019-05-09T02:26:45.195Z,100160.70
2019-05-09T02:29:13.816Z,100157.62
2019-05-09T02:31:44.266Z,100148.80
2019-05-09T02:34:09.413Z,100151.45
2019-05-09T02:36:38.477Z,100148.06
2019-05-09T02:39:09.079Z,100148.45
2019-05-09T02:41:34.630Z,100130.45
2019-05-09T02:44:01.600Z,100151.55
2019-05-09T02:46:39.712Z,100131.36
2019-05-09T02:49:08.808Z,100141.03
2019-05-09T02:51:38.407Z,100131.38
2019-05-09T02:54:04.194Z,100125.22
2019-05-09T02:56:31.281Z,100133.19
2019-05-09T02:59:00.647Z,100121.38
2019-05-09T03:01:29.542Z,100122.62
2019-05-09T03:03:58.945Z,100118.23
2019-05-09T03:06:28.428Z,100114.75
2019-05-09T03:08:55.591Z,100114.38
2019-05-09T03:11:22.455Z,100115.36
2019-05-09T03:13:49.722Z,100115.30
2019-05-09T03:16:19.061Z,100113.53
2019-05-09T03:18:45.763Z,100121.41
2019-05-09T03:21:14.668Z,100111.77
2019-05-09T03:23:41.858Z,100116.23
2019-05-09T03:26:10.806Z,100109.58
2019-05-09T03:28:51.168Z,100115.38
2019-05-09T03:31:20.174Z,100125.83
2019-05-09T03:33:50.031Z,100106.54
2019-05-09T03:36:15.493Z,100114.34
2019-05-09T03:38:42.177Z,100106.21
2019-05-09T03:41:09.390Z,100101.36
2019-05-09T03:43:37.726Z,100109.17
2019-05-09T03:46:12.193Z,100107.42
2019-05-09T03:48:58.143Z,100104.84
2019-05-09T03:51:24.731Z,100103.00
2019-05-09T03:53:51.553Z,100106.59
2019-05-09T03:56:23.359Z,100109.66
2019-05-09T03:58:50.264Z,100106.95
2019-05-09T04:01:17.554Z,100098.21
2019-05-09T04:03:44.761Z,100103.53
2019-05-09T04:06:12.458Z,100095.59
2019-05-09T04:08:39.887Z,100093.39
2019-05-09T04:11:08.591Z,100098.21
2019-05-09T04:13:40.330Z,100100.84
2019-05-09T04:16:07.598Z,100094.56
2019-05-09T04:18:34.192Z,100092.63
2019-05-09T04:21:01.909Z,100084.59
2019-05-09T04:23:28.935Z,100090.23
2019-05-09T04:26:00.428Z,100093.19
2019-05-09T04:28:27.854Z,100083.55
2019-05-09T04:30:54.769Z,100084.34
2019-05-09T04:33:21.660Z,100096.34
2019-05-09T04:35:48.807Z,100078.80
2019-05-09T04:38:17.903Z,100079.72
2019-05-09T04:40:46.065Z,100080.95
2019-05-09T04:43:18.764Z,100077.83
2019-05-09T04:45:53.436Z,100086.94
2019-05-09T04:48:34.383Z,100082.99
2019-05-09T04:51:01.918Z,100080.27
2019-05-09T04:53:28.916Z,100072.88
2019-05-09T04:55:58.035Z,100072.78
2019-05-09T04:58:27.281Z,100075.98
2019-05-09T05:01:14.045Z,100072.28
2019-05-09T05:03:42.281Z,100070.03
2019-05-09T05:06:09.188Z,100072.09
2019-05-09T05:08:37.566Z,100068.99
2019-05-09T05:11:04.733Z,100074.19
2019-05-09T05:13:31.568Z,100058.09
2019-05-09T05:15:58.486Z,100074.63
2019-05-09T05:18:28.282Z,100066.73
2019-05-09T05:20:57.439Z,100067.30
2019-05-09T05:23:27.482Z,100088.66
2019-05-09T05:25:54.175Z,100058.91
2019-05-09T05:28:21.098Z,100065.02
2019-05-09T05:30:48.989Z,100060.45
2019-05-09T05:33:33.988Z,100057.45
2019-05-09T05:36:02.928Z,100063.02
2019-05-09T05:38:29.532Z,100062.62
2019-05-09T05:40:57.817Z,100066.63
2019-05-09T05:43:38.586Z,100063.73
2019-05-09T05:45:58.342Z,100058.73
2019-05-09T05:48:29.759Z,100073.98
2019-05-09T05:50:57.770Z,100061.00
2019-05-09T05:53:27.613Z,100061.84
2019-05-09T05:55:54.885Z,100053.20
2019-05-09T05:58:22.789Z,100063.09
2019-05-09T06:00:49.926Z,100063.59
2019-05-09T06:03:17.808Z,100060.73
2019-05-09T06:05:44.736Z,100068.45
2019-05-09T06:08:11.557Z,100053.38
2019-05-09T06:10:38.502Z,100065.32
2019-05-09T06:13:07.787Z,100057.66
2019-05-09T06:15:34.154Z,100063.43
2019-05-09T06:18:00.962Z,100062.52
2019-05-09T06:20:28.226Z,100063.43
2019-05-09T06:22:55.355Z,100053.84
2019-05-09T06:25:22.125Z,100066.83
2019-05-09T06:27:49.684Z,100060.11
2019-05-09T06:30:22.433Z,100061.46
2019-05-09T06:32:49.528Z,100057.41
2019-05-09T06:35:21.435Z,100055.80
2019-05-09T06:37:48.238Z,100055.17
2019-05-09T06:40:21.395Z,100052.80
2019-05-09T06:42:48.893Z,100054.52
2019-05-09T06:45:33.700Z,100055.91
2019-05-09T06:48:00.740Z,100054.41
2019-05-09T06:50:27.853Z,100060.73
2019-05-09T06:52:57.193Z,100055.95
2019-05-09T06:55:24.407Z,100060.73
2019-05-09T06:57:52.150Z,100051.04
2019-05-09T07:00:25.239Z,100051.55
2019-05-09T07:03:00.224Z,100050.23
2019-05-09T07:05:29.203Z,100060.81
2019-05-09T07:08:10.048Z,100056.55
2019-05-09T07:10:37.757Z,100060.50
2019-05-09T07:13:04.986Z,100059.30
2019-05-09T07:15:31.759Z,100056.77
2019-05-09T07:17:58.950Z,100056.65
2019-05-09T07:20:28.319Z,100043.39
2019-05-09T07:22:58.033Z,100048.18
2019-05-09T07:25:28.587Z,100057.36
2019-05-09T07:27:55.230Z,100056.89
2019-05-09T07:30:32.761Z,100072.61
2019-05-09T07:33:14.008Z,100055.81
2019-05-09T07:35:41.178Z,100057.29
2019-05-09T07:38:08.623Z,100061.23
2019-05-09T07:40:38.489Z,100072.13
2019-05-09T07:43:07.546Z,100062.20
2019-05-09T07:45:33.959Z,100064.50
2019-05-09T07:48:00.739Z,100067.65
2019-05-09T07:50:27.906Z,100059.47
2019-05-09T07:52:54.795Z,100062.38
2019-05-09T07:55:21.841Z,100065.62
2019-05-09T07:57:54.879Z,100069.75
2019-05-09T08:00:20.537Z,100061.88
2019-05-09T08:02:47.725Z,100050.22
2019-05-09T08:05:17.398Z,100061.60
2019-05-09T08:07:44.292Z,100058.21
2019-05-09T08:10:11.562Z,100056.51
2019-05-09T08:12:39.072Z,100077.05
2019-05-09T08:15:13.823Z,100061.73
2019-05-09T08:17:35.163Z,100069.98
2019-05-09T08:20:02.769Z,100076.19
2019-05-09T08:22:32.068Z,100068.28
2019-05-09T08:24:58.821Z,100061.10
2019-05-09T08:27:25.858Z,100077.43
2019-05-09T08:29:52.702Z,100072.79
2019-05-09T08:32:19.358Z,100071.31
2019-05-09T08:34:48.228Z,100078.84
2019-05-09T08:37:14.723Z,100073.80
2019-05-09T08:39:41.522Z,100084.18
2019-05-09T08:42:08.793Z,100094.13
2019-05-09T08:44:37.766Z,100093.61
2019-05-09T08:47:04.418Z,100091.55
2019-05-09T08:49:32.851Z,100090.94
2019-05-09T08:52:14.968Z,100092.70
2019-05-09T08:54:39.751Z,100097.63
2019-05-09T08:57:07.878Z,100100.97
2019-05-09T08:59:35.334Z,100096.28
2019-05-09T09:02:21.929Z,100099.03
2019-05-09T09:04:31.076Z,100085.41
2019-05-09T09:06:57.961Z,100083.42
2019-05-09T09:09:24.725Z,100085.44
2019-05-09T09:11:53.008Z,100082.23
2019-05-09T09:14:19.741Z,100081.22
2019-05-09T09:16:47.970Z,100080.07
2019-05-09T09:19:17.810Z,100089.89
2019-05-09T09:21:46.906Z,100080.77
2019-05-09T09:24:14.492Z,100092.10
2019-05-09T09:26:41.696Z,100111.30
2019-05-09T09:29:08.902Z,100094.87
2019-05-09T09:31:37.714Z,100083.97
2019-05-09T09:34:04.295Z,100084.31
2019-05-09T09:36:31.604Z,100085.20
2019-05-09T09:38:58.765Z,100081.12
2019-05-09T09:41:28.431Z,100084.51
2019-05-09T09:43:54.564Z,100070.49
2019-05-09T09:46:21.769Z,100086.77
2019-05-09T09:48:48.711Z,100083.49
2019-05-09T09:51:18.328Z,100082.08
2019-05-09T09:53:44.474Z,100078.69
2019-05-09T09:56:11.428Z,100074.20
2019-05-09T09:58:38.340Z,100075.01
2019-05-09T10:01:09.850Z,100064.23
2019-05-09T10:03:37.012Z,100072.69
2019-05-09T10:06:04.146Z,100078.11
2019-05-09T10:08:31.138Z,100070.77
2019-05-09T10:10:59.114Z,100078.06
2019-05-09T10:13:28.390Z,100072.16
2019-05-09T10:15:59.290Z,100070.65
2019-05-09T10:18:33.499Z,100075.79
2019-05-09T10:21:05.839Z,100075.10
2019-05-09T10:23:32.456Z,100068.36
2019-05-09T10:25:59.234Z,100077.33
2019-05-09T10:28:29.792Z,100072.22
2019-05-09T10:30:54.616Z,100088.61
2019-05-09T10:33:21.302Z,100085.64
2019-05-09T10:35:48.367Z,100067.11
2019-05-09T10:38:14.967Z,100061.69
2019-05-09T10:40:41.617Z,100055.23
2019-05-09T10:43:35.714Z,100077.13
2019-05-09T10:46:15.492Z,100077.27
2019-05-09T10:48:42.401Z,100067.52
2019-05-09T10:51:10.699Z,100077.72
2019-05-09T10:53:37.870Z,100065.58
2019-05-09T10:56:04.566Z,100071.02
2019-05-09T10:58:31.546Z,100060.58
2019-05-09T11:00:58.834Z,100066.96
2019-05-09T11:03:25.848Z,100070.78
2019-05-09T11:05:52.648Z,100062.30
2019-05-09T11:08:19.333Z,100069.06
2019-05-09T11:10:47.472Z,100069.55
2019-05-09T11:13:18.010Z,100056.25
2019-05-09T11:15:43.983Z,100059.92
2019-05-09T11:18:10.788Z,100068.56
2019-05-09T11:20:38.590Z,100055.30
2019-05-09T11:23:07.873Z,100065.77
2019-05-09T11:25:34.304Z,100061.79
2019-05-09T11:28:10.470Z,100044.86
2019-05-09T11:30:31.012Z,100048.38
2019-05-09T11:32:59.789Z,100049.20
2019-05-09T11:35:26.583Z,100053.16
2019-05-09T11:37:53.396Z,100055.16
2019-05-09T11:40:20.123Z,100064.79
2019-05-09T11:42:48.239Z,100051.51
2019-05-09T11:45:17.722Z,100029.28
2019-05-09T11:47:46.863Z,100060.05
2019-05-09T11:50:12.203Z,100037.80
2019-05-09T11:52:39.100Z,100039.69
2019-05-09T11:55:07.902Z,100030.37
2019-05-09T11:57:34.554Z,100030.11
2019-05-09T12:00:01.376Z,100024.98
2019-05-09T12:02:28.635Z,100022.83
2019-05-09T12:04:55.261Z,100038.23
2019-05-09T12:07:22.206Z,100019.70
2019-05-09T12:09:49.081Z,100031.92
2019-05-09T12:12:16.132Z,100038.62
2019-05-09T12:14:43.173Z,100033.46
2019-05-09T12:17:10.402Z,100028.45
2019-05-09T12:19:38.045Z,100035.82
2019-05-09T12:22:05.331Z,100041.44
2019-05-09T12:24:31.954Z,100035.27
2019-05-09T12:27:02.818Z,100031.07
2019-05-09T12:29:28.740Z,100023.44
2019-05-09T12:31:55.715Z,100027.36
2019-05-09T12:34:22.606Z,100024.92
2019-05-09T12:36:49.964Z,100033.70
2019-05-09T12:39:18.761Z,100022.23
2019-05-09T12:41:48.229Z,100023.27
2019-05-09T12:44:14.178Z,100033.04
2019-05-09T12:46:41.124Z,100025.09
2019-05-09T12:49:08.914Z,100023.03
2019-05-09T12:51:37.697Z,100023.63
2019-05-09T12:54:08.406Z,100019.41
2019-05-09T12:56:34.484Z,100022.63
2019-05-09T12:59:01.717Z,100014.88
2019-05-09T13:01:28.740Z,100026.38
2019-05-09T13:03:58.040Z,100020.96
2019-05-09T13:06:25.526Z,100019.39
2019-05-09T13:08:52.410Z,100024.23
2019-05-09T13:11:20.214Z,100021.47
2019-05-09T13:13:48.034Z,100018.83
2019-05-09T13:16:17.730Z,100018.05
2019-05-09T13:19:02.540Z,100020.99
2019-05-09T13:21:32.529Z,100024.66
2019-05-09T13:23:58.921Z,100025.33
2019-05-09T13:26:28.532Z,100021.86
2019-05-09T13:28:54.777Z,100032.27
2019-05-09T13:31:22.397Z,100031.95
2019-05-09T13:33:49.409Z,100022.95
2019-05-09T13:36:18.808Z,100029.63
2019-05-09T13:38:56.362Z,100035.52
2019-05-09T13:41:14.019Z,100031.05
2019-05-09T13:43:47.917Z,100031.58
2019-05-09T13:46:09.498Z,100029.41
2019-05-09T13:48:57.147Z,100021.91
2019-05-09T13:51:04.824Z,100029.11
2019-05-09T13:53:31.896Z,100025.46
2019-05-09T13:55:58.875Z,100028.54
2019-05-09T13:58:28.268Z,100018.44
2019-05-09T14:00:59.089Z,100019.41
2019-05-09T14:03:23.180Z,100014.56
2019-05-09T14:05:50.118Z,100010.92
2019-05-09T14:08:18.245Z,100024.06
2019-05-09T14:10:48.191Z,100021.59
2019-05-09T14:13:14.285Z,100011.14
2019-05-09T14:15:43.952Z,100015.58
2019-05-09T14:18:09.726Z,100017.20
2019-05-09T14:20:37.805Z,100019.88
2019-05-09T14:23:05.674Z,100014.92
2019-05-09T14:25:32.216Z,100021.50
2019-05-09T14:27:59.010Z,100014.44
2019-05-09T14:30:27.586Z,100012.98
2019-05-09T14:32:54.346Z,100005.07
2019-05-09T14:35:21.099Z,100015.14
2019-05-09T14:38:00.516Z,100015.53
2019-05-09T14:40:28.066Z,100006.30
2019-05-09T14:42:57.653Z,100011.58
2019-05-09T14:45:23.647Z,99998.44
2019-05-09T14:47:50.423Z,100001.11
2019-05-09T14:50:18.067Z,100002.08
2019-05-09T14:52:45.222Z,99998.75
2019-05-09T14:55:11.778Z,99994.50
2019-05-09T14:57:38.530Z,100007.28
2019-05-09T15:00:07.801Z,100008.41
2019-05-09T15:02:34.679Z,100009.81
2019-05-09T15:05:02.033Z,100003.62
2019-05-09T15:07:29.180Z,99994.84
2019-05-09T15:09:56.864Z,99991.41
2019-05-09T15:12:24.189Z,99992.61
2019-05-09T15:14:51.221Z,99994.97
2019-05-09T15:17:18.538Z,99992.64
2019-05-09T15:19:57.502Z,99991.28
2019-05-09T15:22:13.746Z,99994.89
2019-05-09T15:24:40.817Z,99990.58
2019-05-09T15:27:07.613Z,99994.97
2019-05-09T15:29:34.320Z,99996.23
2019-05-09T15:32:05.582Z,99998.48
2019-05-09T15:34:29.640Z,99992.73
2019-05-09T15:36:58.191Z,99999.88
2019-05-09T15:39:24.904Z,100001.77
2019-05-09T15:41:52.229Z,99995.73
2019-05-09T15:44:19.134Z,99999.41
2019-05-09T15:46:50.764Z,100003.52
2019-05-09T15:49:18.377Z,100001.05
2019-05-09T15:51:47.654Z,100006.75
2019-05-09T15:54:17.192Z,100004.56
2019-05-09T15:56:44.458Z,100008.08
2019-05-09T15:59:11.265Z,100011.70
2019-05-09T16:01:38.542Z,100010.75
2019-05-09T16:04:05.381Z,100002.33
2019-05-09T16:06:33.471Z,100006.31
2019-05-09T16:09:01.109Z,100001.92
2019-05-09T16:11:28.625Z,100003.77
2019-05-09T16:13:55.718Z,99999.30
2019-05-09T16:16:22.486Z,100006.80
2019-05-09T16:18:49.135Z,100004.56
2019-05-09T16:21:16.052Z,100001.84
2019-05-09T16:23:42.956Z,100002.80
2019-05-09T16:26:10.134Z,100004.96
2019-05-09T16:28:38.141Z,100006.36
2019-05-09T16:31:05.089Z,100002.84
2019-05-09T16:33:31.800Z,100001.48
2019-05-09T16:35:58.500Z,99996.66
2019-05-09T16:38:41.265Z,99996.66
2019-05-09T16:40:54.467Z,99998.38
2019-05-09T16:43:21.231Z,100003.28
2019-05-09T16:45:48.103Z,99999.84
2019-05-09T16:48:14.646Z,99994.95
2019-05-09T16:50:59.507Z,99994.11
2019-05-09T16:53:10.924Z,99991.44
2019-05-09T16:55:39.163Z,99988.84
2019-05-09T16:58:05.792Z,99987.92
2019-05-09T17:00:38.120Z,99993.11
2019-05-09T17:03:04.687Z,99988.77
2019-05-09T17:05:31.463Z,99984.81
2019-05-09T17:07:59.379Z,99988.72
2019-05-09T17:10:26.519Z,99995.74
2019-05-09T17:12:53.288Z,99991.39
2019-05-09T17:15:19.979Z,99989.95
2019-05-09T17:17:47.692Z,99992.27
2019-05-09T17:20:19.112Z,99995.78
2019-05-09T17:23:13.466Z,99989.63
2019-05-09T17:25:35.026Z,99991.36
2019-05-09T17:28:03.117Z,99998.45
2019-05-09T17:30:30.312Z,100004.67
2019-05-09T17:32:58.303Z,100006.80
2019-05-09T17:35:25.024Z,100007.59
2019-05-09T17:37:52.027Z,100009.39
2019-05-09T17:40:19.341Z,100013.33
2019-05-09T17:42:46.211Z,100006.27
2019-05-09T17:45:13.356Z,100001.84
2019-05-09T17:47:40.435Z,100011.22
2019-05-09T17:50:07.823Z,100008.51
2019-05-09T17:52:34.799Z,100011.62
2019-05-09T17:55:01.559Z,100012.09
2019-05-09T17:57:28.363Z,100013.97
2019-05-09T17:59:58.197Z,100009.22
2019-05-09T18:02:24.025Z,100014.88
2019-05-09T18:04:51.594Z,100014.95
2019-05-09T18:07:18.673Z,100014.44
2019-05-09T18:09:47.883Z,100015.39
2019-05-09T18:12:14.594Z,100018.50
2019-05-09T18:14:41.350Z,100016.31
2019-05-09T18:17:08.276Z,100015.39
2019-05-09T18:19:35.079Z,100021.13
2019-05-09T18:22:02.768Z,100019.42
2019-05-09T18:24:30.134Z,100019.89
2019-05-09T18:26:58.283Z,100016.45
2019-05-09T18:29:27.249Z,100013.38
2019-05-09T18:31:58.226Z,100014.27
2019-05-09T18:34:24.824Z,100015.06
2019-05-09T18:36:51.537Z,100019.53
2019-05-09T18:39:19.825Z,100018.94
2019-05-09T18:41:48.362Z,100020.73
2019-05-09T18:50:00.956Z,100018.14
2019-05-09T18:52:30.179Z,100007.79
2019-05-09T18:54:57.169Z,100008.62
2019-05-09T18:57:24.104Z,100010.75
2019-05-09T18:59:51.099Z,100012.95
2019-05-09T19:02:18.032Z,100018.20
2019-05-09T19:04:44.957Z,100013.78
2019-05-09T19:07:22.012Z,100017.30
2019-05-09T19:09:40.572Z,100012.11
2019-05-09T19:12:07.472Z,100014.84
2019-05-09T19:14:34.476Z,100005.27
2019-05-09T19:17:19.924Z,100003.47
2019-05-09T19:19:48.909Z,100003.37
2019-05-09T19:22:22.366Z,99996.34
2019-05-09T19:24:44.926Z,99998.98
2019-05-09T19:27:11.916Z,99994.63
2019-05-09T19:29:38.817Z,99998.14
2019-05-09T19:32:05.735Z,100004.79
2019-05-09T19:34:32.630Z,100003.03
2019-05-09T19:36:59.406Z,100005.67
2019-05-09T19:39:26.602Z,99996.02
2019-05-09T19:41:53.590Z,100003.08
2019-05-09T19:44:20.694Z,100004.79
2019-05-09T19:46:47.566Z,100009.65
2019-05-09T19:49:14.899Z,100008.38
2019-05-09T19:51:41.682Z,100012.83
2019-05-09T19:54:08.855Z,100020.75
2019-05-09T19:56:35.873Z,100006.72
2019-05-09T19:59:06.555Z,100010.70
2019-05-09T20:01:31.979Z,100014.65
2019-05-09T20:03:58.762Z,100009.48
2019-05-09T20:06:25.994Z,100011.68
2019-05-09T20:08:53.147Z,100006.86
2019-05-09T20:11:23.043Z,100011.28
2019-05-09T20:13:57.639Z,100010.00
2019-05-09T20:16:25.841Z,100013.94
2019-05-09T20:18:54.438Z,100017.42
2019-05-09T20:21:21.492Z,100015.36
2019-05-09T20:23:48.629Z,100014.41
2019-05-09T20:26:15.877Z,100011.31
2019-05-09T20:28:43.263Z,100013.50
2019-05-09T20:31:10.263Z,100014.41
2019-05-09T20:33:37.049Z,100017.02
2019-05-09T20:36:04.190Z,100014.48
2019-05-09T20:38:31.372Z,100007.40
2019-05-09T20:40:58.265Z,100014.92
2019-05-09T20:43:25.090Z,100012.66
2019-05-09T20:45:51.857Z,100016.61
2019-05-09T20:48:19.155Z,100017.98
2019-05-09T20:50:46.182Z,100020.55
2019-05-09T20:53:13.116Z,100021.49
2019-05-09T20:55:39.900Z,100023.75
2019-05-09T20:58:08.422Z,100030.70
2019-05-09T21:00:35.618Z,100033.77
2019-05-09T21:03:02.725Z,100033.30
2019-05-09T21:05:29.986Z,100030.20
2019-05-09T21:07:56.788Z,100027.63
2019-05-09T21:10:23.471Z,100040.84
2019-05-09T21:12:51.697Z,100036.91
2019-05-09T21:15:18.787Z,100036.87
2019-05-09T21:17:45.978Z,100037.24
2019-05-09T21:20:12.885Z,100035.45
2019-05-09T21:22:39.956Z,100031.07
2019-05-09T21:25:07.263Z,100042.41
2019-05-09T21:27:34.125Z,100041.09
2019-05-09T21:30:01.533Z,100043.75
2019-05-09T21:32:28.358Z,100043.35
2019-05-09T21:34:55.481Z,100047.80
2019-05-09T21:37:23.524Z,100042.47
2019-05-09T21:39:50.675Z,100048.17
2019-05-09T21:42:18.073Z,100047.77
2019-05-09T21:44:44.806Z,100043.45
2019-05-09T21:47:11.861Z,100055.22
2019-05-09T21:49:39.022Z,100053.97
2019-05-09T21:52:06.253Z,100051.43
2019-05-09T21:54:33.063Z,100058.38
2019-05-09T21:56:59.976Z,100055.34
2019-05-09T21:59:27.107Z,100051.81
2019-05-09T22:01:54.483Z,100053.22
2019-05-09T22:04:21.406Z,100050.55
2019-05-09T22:06:48.163Z,100054.19
2019-05-09T22:09:15.525Z,100051.46
2019-05-09T22:11:42.433Z,100052.78
2019-05-09T22:14:09.703Z,100053.78
2019-05-09T22:16:36.736Z,100056.81
2019-05-09T22:19:03.679Z,100055.50
2019-05-09T22:21:30.290Z,100054.25
2019-05-09T22:23:57.399Z,100053.38
2019-05-09T22:26:24.318Z,100053.72
2019-05-09T22:28:51.359Z,100056.88
2019-05-09T22:31:18.190Z,100056.81
2019-05-09T22:33:45.149Z,100051.17
2019-05-09T22:36:12.627Z,100049.92
2019-05-09T22:38:43.355Z,100049.95
2019-05-09T22:41:08.392Z,100046.95
2019-05-09T22:43:35.502Z,100044.47
2019-05-09T22:46:02.342Z,100052.78
2019-05-09T22:48:29.067Z,100044.96
2019-05-09T22:50:56.545Z,100048.43
2019-05-09T22:53:23.589Z,100050.59
2019-05-09T22:55:50.336Z,100054.68
2019-05-09T22:58:18.565Z,100052.13
2019-05-09T23:00:45.756Z,100044.63
2019-05-09T23:03:12.705Z,100048.58
2019-05-09T23:05:39.641Z,100045.56
2019-05-09T23:08:07.839Z,100046.52
2019-05-09T23:10:34.988Z,100046.98
2019-05-09T23:13:02.016Z,100046.13
2019-05-09T23:15:28.910Z,100049.20
2019-05-09T23:17:55.819Z,100039.16
2019-05-09T23:20:42.805Z,100047.07
2019-05-09T23:23:11.511Z,100048.81
2019-05-09T23:25:38.384Z,100044.00
2019-05-09T23:28:05.061Z,100042.22
2019-05-09T23:30:31.839Z,100049.28
2019-05-09T23:32:58.880Z,100054.05
2019-05-09T23:35:25.706Z,100054.53
2019-05-09T23:37:52.471Z,100047.56
2019-05-09T23:40:19.286Z,100041.45
2019-05-09T23:42:46.005Z,100048.05
2019-05-09T23:45:12.919Z,100048.05
2019-05-09T23:47:40.274Z,100044.19
2019-05-09T23:50:07.088Z,100049.88
2019-05-09T23:52:35.120Z,100049.19
2019-05-09T23:55:20.443Z,100056.25
2019-05-09T23:58:05.793Z,100042.16
